createdAt,value
2022-11-07T00:02:08.927Z,77.78
2022-11-07T00:04:37.691Z,78.00
2022-11-07T00:07:07.829Z,77.89
2022-11-07T00:09:38.518Z,78.13
2022-11-07T00:12:06.899Z,78.25
2022-11-07T00:14:35.335Z,77.67
2022-11-07T00:17:03.331Z,78.08
2022-11-07T00:19:31.388Z,78.06
2022-11-07T00:21:59.684Z,77.49
2022-11-07T00:24:27.639Z,77.60
2022-11-07T00:26:55.908Z,77.75
2022-11-07T00:29:24.080Z,77.89
2022-11-07T00:31:52.229Z,77.90
2022-11-07T00:34:20.449Z,77.51
2022-11-07T00:36:48.655Z,77.90
2022-11-07T00:39:16.630Z,77.46
2022-11-07T00:41:47.469Z,77.75
2022-11-07T00:44:15.786Z,77.14
2022-11-07T00:46:43.751Z,77.61
2022-11-07T00:49:11.866Z,77.79
2022-11-07T00:51:40.337Z,77.21
2022-11-07T00:54:08.342Z,77.21
2022-11-07T00:56:36.233Z,77.87
2022-11-07T00:59:05.657Z,77.58
2022-11-07T01:01:35.104Z,77.82
2022-11-07T01:04:21.448Z,77.15
2022-11-07T01:06:49.497Z,77.25
2022-11-07T01:09:21.209Z,77.29
2022-11-07T01:11:51.191Z,76.93
2022-11-07T01:14:22.717Z,76.92
2022-11-07T01:16:51.553Z,76.86
2022-11-07T01:19:20.604Z,77.43
2022-11-07T01:21:49.356Z,77.38
2022-11-07T01:24:18.640Z,77.21
2022-11-07T01:26:52.622Z,77.44
2022-11-07T01:29:21.482Z,76.73
2022-11-07T01:31:49.592Z,77.24
2022-11-07T01:34:18.409Z,76.93
2022-11-07T01:36:46.570Z,77.06
2022-11-07T01:39:14.619Z,76.98
2022-11-07T01:41:43.185Z,76.62
2022-11-07T01:44:11.115Z,77.11
2022-11-07T01:46:44.393Z,76.69
2022-11-07T01:49:24.749Z,76.47
2022-11-07T01:51:52.711Z,76.71
2022-11-07T01:54:27.277Z,76.54
2022-11-07T01:57:00.398Z,76.78
2022-11-07T01:59:31.778Z,76.32
2022-11-07T02:02:00.425Z,77.09
2022-11-07T02:04:31.626Z,76.74
2022-11-07T02:07:09.949Z,76.69
2022-11-07T02:09:38.083Z,76.51
2022-11-07T02:12:08.209Z,76.85
2022-11-07T02:14:36.256Z,76.58
2022-11-07T02:17:04.928Z,76.68
2022-11-07T02:20:02.143Z,76.45
2022-11-07T02:22:35.829Z,76.47
2022-11-07T02:25:09.356Z,76.89
2022-11-07T02:27:42.679Z,76.99
2022-11-07T02:30:21.367Z,76.36
2022-11-07T02:32:50.486Z,76.53
2022-11-07T02:35:55.288Z,76.95
2022-11-07T02:38:33.137Z,76.30
2022-11-07T02:41:23.670Z,76.73
2022-11-07T02:43:58.679Z,76.73
2022-11-07T02:46:28.875Z,76.63
2022-11-07T02:49:00.095Z,76.87
2022-11-07T02:51:28.209Z,76.73
2022-11-07T02:53:58.643Z,76.43
2022-11-07T02:56:27.152Z,76.81
2022-11-07T02:58:55.350Z,76.16
2022-11-07T03:01:24.662Z,76.68
2022-11-07T03:03:52.922Z,76.85
2022-11-07T03:06:24.208Z,76.38
2022-11-07T03:08:54.728Z,76.90
2022-11-07T03:11:22.803Z,76.33
2022-11-07T03:13:52.022Z,76.76
2022-11-07T03:16:22.580Z,76.59
2022-11-07T03:18:50.542Z,77.02
2022-11-07T03:21:18.563Z,76.91
2022-11-07T03:23:48.208Z,76.82
2022-11-07T03:26:15.905Z,76.84
2022-11-07T03:28:43.867Z,77.05
2022-11-07T03:31:11.924Z,76.45
2022-11-07T03:33:39.951Z,76.95
2022-11-07T03:36:08.309Z,76.93
2022-11-07T03:38:38.592Z,76.42
2022-11-07T03:41:06.652Z,76.89
2022-11-07T03:43:34.647Z,76.57
2022-11-07T03:46:04.730Z,77.13
2022-11-07T03:48:32.704Z,77.39
2022-11-07T03:51:00.673Z,77.45
2022-11-07T03:53:28.885Z,77.52
2022-11-07T03:55:57.990Z,76.97
2022-11-07T03:58:26.808Z,76.74
2022-11-07T04:00:54.995Z,77.14
2022-11-07T04:03:22.985Z,77.28
2022-11-07T04:05:50.940Z,77.47
2022-11-07T04:08:19.324Z,77.44
2022-11-07T04:10:47.951Z,77.46
2022-11-07T04:13:37.915Z,77.62
2022-11-07T04:16:31.938Z,77.30
2022-11-07T04:19:03.888Z,77.30
2022-11-07T04:21:31.821Z,77.31
2022-11-07T04:23:59.837Z,77.78
2022-11-07T04:26:47.605Z,77.30
2022-11-07T04:29:15.562Z,77.08
2022-11-07T04:31:43.563Z,77.07
2022-11-07T04:34:11.793Z,77.35
2022-11-07T04:36:39.764Z,77.84
2022-11-07T04:39:07.766Z,78.02
2022-11-07T04:41:37.644Z,77.77
2022-11-07T04:44:06.672Z,78.17
2022-11-07T04:47:15.116Z,78.22
2022-11-07T04:49:43.064Z,78.14
2022-11-07T04:52:12.753Z,78.08
2022-11-07T04:54:40.462Z,77.88
2022-11-07T04:57:08.558Z,78.17
2022-11-07T04:59:36.536Z,78.38
2022-11-07T05:02:06.836Z,78.15
2022-11-07T05:04:34.924Z,78.17
2022-11-07T05:07:03.608Z,78.41
2022-11-07T05:09:33.685Z,79.00
2022-11-07T05:12:03.809Z,78.58
2022-11-07T05:14:31.997Z,79.21
2022-11-07T05:17:01.366Z,78.80
2022-11-07T05:19:29.560Z,78.85
2022-11-07T05:22:19.440Z,79.67
2022-11-07T05:24:47.463Z,79.27
2022-11-07T05:27:22.024Z,79.83
2022-11-07T05:29:52.704Z,79.82
2022-11-07T05:32:20.801Z,79.91
2022-11-07T05:34:49.895Z,79.33
2022-11-07T05:37:18.000Z,80.06
2022-11-07T05:39:47.307Z,79.56
2022-11-07T05:42:18.158Z,80.24
2022-11-07T05:44:47.747Z,80.09
2022-11-07T05:47:15.599Z,80.31
2022-11-07T05:49:43.618Z,79.94
2022-11-07T05:52:11.700Z,79.66
2022-11-07T05:54:39.603Z,79.48
2022-11-07T05:57:07.640Z,80.08
2022-11-07T05:59:35.811Z,80.08
2022-11-07T06:02:04.011Z,80.00
2022-11-07T06:04:32.145Z,80.06
2022-11-07T06:07:01.682Z,80.14
2022-11-07T06:09:29.373Z,79.82
2022-11-07T06:11:57.296Z,79.96
2022-11-07T06:14:26.717Z,79.82
2022-11-07T06:16:54.723Z,80.08
2022-11-07T06:19:22.701Z,80.36
2022-11-07T06:21:51.610Z,79.90
2022-11-07T06:24:20.780Z,80.33
2022-11-07T06:26:48.806Z,79.82
2022-11-07T06:29:16.993Z,79.56
2022-11-07T06:31:45.087Z,79.81
2022-11-07T06:34:12.929Z,79.90
2022-11-07T06:36:41.858Z,80.13
2022-11-07T06:39:09.891Z,79.83
2022-11-07T06:41:37.824Z,79.35
2022-11-07T06:44:07.801Z,79.73
2022-11-07T06:46:35.787Z,79.92
2022-11-07T06:49:04.005Z,79.40
2022-11-07T06:51:32.205Z,79.94
2022-11-07T06:54:00.110Z,79.31
2022-11-07T06:56:28.086Z,79.53
2022-11-07T06:58:57.075Z,80.15
2022-11-07T07:01:25.288Z,79.58
2022-11-07T07:03:54.312Z,79.35
2022-11-07T07:06:23.731Z,79.38
2022-11-07T07:08:51.672Z,79.21
2022-11-07T07:11:19.749Z,79.43
2022-11-07T07:13:47.906Z,79.12
2022-11-07T07:16:15.917Z,79.06
2022-11-07T07:18:43.906Z,79.53
2022-11-07T07:21:15.804Z,78.96
2022-11-07T07:23:43.993Z,78.91
2022-11-07T07:26:19.463Z,78.53
2022-11-07T07:28:47.502Z,79.38
2022-11-07T07:31:15.392Z,79.03
2022-11-07T07:33:45.545Z,79.02
2022-11-07T07:36:19.259Z,78.75
2022-11-07T07:38:49.818Z,78.91
2022-11-07T07:41:19.135Z,78.64
2022-11-07T07:43:47.293Z,78.38
2022-11-07T07:46:19.006Z,78.04
2022-11-07T07:48:46.992Z,78.36
2022-11-07T07:51:15.000Z,78.69
2022-11-07T07:53:43.096Z,78.45
2022-11-07T07:56:11.086Z,78.13
2022-11-07T07:58:39.085Z,77.66
2022-11-07T08:01:11.305Z,77.94
2022-11-07T08:04:00.340Z,77.81
2022-11-07T08:06:28.834Z,77.14
2022-11-07T08:08:56.832Z,77.57
2022-11-07T08:11:24.930Z,77.36
2022-11-07T08:13:55.138Z,77.36
2022-11-07T08:16:26.498Z,77.56
2022-11-07T08:18:54.540Z,76.93
2022-11-07T08:21:22.668Z,77.04
2022-11-07T08:23:54.226Z,77.20
2022-11-07T08:26:22.270Z,77.10
2022-11-07T08:28:51.195Z,77.16
2022-11-07T08:31:19.139Z,77.28
2022-11-07T08:33:47.269Z,77.00
2022-11-07T08:36:15.618Z,76.79
2022-11-07T08:38:43.591Z,76.77
2022-11-07T08:41:11.721Z,76.93
2022-11-07T08:43:40.693Z,76.34
2022-11-07T08:46:08.696Z,76.50
2022-11-07T08:48:36.737Z,76.76
2022-11-07T08:51:05.091Z,76.15
2022-11-07T08:53:34.307Z,76.27
2022-11-07T08:56:04.784Z,76.35
2022-11-07T08:58:35.566Z,75.93
2022-11-07T09:01:07.877Z,76.43
2022-11-07T09:03:50.347Z,75.82
2022-11-07T09:06:25.269Z,75.91
2022-11-07T09:08:53.646Z,76.05
2022-11-07T09:11:22.745Z,75.79
2022-11-07T09:13:50.839Z,76.05
2022-11-07T09:16:19.203Z,75.49
2022-11-07T09:18:49.267Z,75.53
2022-11-07T09:21:22.107Z,76.07
2022-11-07T09:23:52.796Z,75.84
2022-11-07T09:26:20.928Z,75.17
2022-11-07T09:28:52.348Z,75.37
2022-11-07T09:31:23.200Z,74.87
2022-11-07T09:33:51.289Z,75.73
2022-11-07T09:36:19.462Z,75.65
2022-11-07T09:38:47.667Z,75.00
2022-11-07T09:41:29.211Z,75.23
2022-11-07T09:44:15.681Z,75.00
2022-11-07T09:46:43.538Z,74.77
2022-11-07T09:49:21.147Z,74.43
2022-11-07T09:51:57.086Z,74.94
2022-11-07T09:54:31.634Z,74.97
2022-11-07T09:57:00.686Z,74.41
2022-11-07T09:59:44.353Z,74.56
2022-11-07T10:02:22.156Z,74.71
2022-11-07T10:04:57.632Z,74.17
2022-11-07T10:07:38.817Z,74.63
2022-11-07T10:10:22.762Z,74.72
2022-11-07T10:13:17.611Z,74.69
2022-11-07T10:15:57.591Z,74.36
2022-11-07T10:18:53.146Z,74.60
2022-11-07T10:21:38.031Z,74.24
2022-11-07T10:24:06.278Z,74.41
2022-11-07T10:26:34.563Z,74.82
2022-11-07T10:29:16.777Z,74.69
2022-11-07T10:31:52.468Z,74.87
2022-11-07T10:34:26.787Z,74.89
2022-11-07T10:36:54.765Z,75.33
2022-11-07T10:39:22.734Z,74.78
2022-11-07T10:42:07.117Z,74.46
2022-11-07T10:44:36.238Z,74.92
2022-11-07T10:48:14.008Z,75.00
2022-11-07T10:50:55.286Z,74.82
2022-11-07T10:53:26.181Z,75.33
2022-11-07T10:55:56.127Z,75.43
2022-11-07T10:58:30.055Z,75.20
2022-11-07T11:01:07.915Z,75.72
2022-11-07T11:03:45.347Z,75.68
2022-11-07T11:06:31.643Z,75.38
2022-11-07T11:09:15.558Z,75.47
2022-11-07T11:11:51.624Z,75.46
2022-11-07T11:14:25.216Z,76.04
2022-11-07T11:16:57.319Z,76.32
2022-11-07T11:19:41.855Z,75.55
2022-11-07T11:22:18.749Z,75.85
2022-11-07T11:24:47.257Z,75.85
2022-11-07T11:27:22.639Z,76.30
2022-11-07T11:29:59.665Z,76.25
2022-11-07T11:33:04.228Z,76.55
2022-11-07T11:35:47.097Z,76.67
2022-11-07T11:38:18.430Z,76.73
2022-11-07T11:41:05.948Z,76.05
2022-11-07T11:44:12.802Z,76.92
2022-11-07T11:47:05.392Z,76.77
2022-11-07T11:49:44.017Z,76.77
2022-11-07T11:52:22.157Z,76.62
2022-11-07T11:54:53.043Z,77.01
2022-11-07T11:57:48.006Z,77.10
2022-11-07T12:00:22.293Z,77.48
2022-11-07T12:03:22.095Z,77.01
2022-11-07T12:06:13.711Z,76.89
2022-11-07T12:08:52.781Z,77.51
2022-11-07T12:11:51.081Z,77.32
2022-11-07T12:14:40.798Z,77.70
2022-11-07T12:17:11.607Z,77.88
2022-11-07T12:19:56.631Z,77.20
2022-11-07T12:22:46.385Z,77.67
2022-11-07T12:25:43.133Z,77.36
2022-11-07T12:28:29.268Z,77.54
2022-11-07T12:31:03.931Z,77.60
2022-11-07T12:34:02.304Z,78.08
2022-11-07T12:37:11.948Z,77.93
2022-11-07T12:39:56.073Z,77.83
2022-11-07T12:42:35.017Z,78.15
2022-11-07T12:45:27.369Z,77.88
2022-11-07T12:47:56.208Z,77.60
2022-11-07T12:50:50.732Z,78.20
2022-11-07T12:53:30.180Z,77.78
2022-11-07T12:56:06.011Z,78.00
2022-11-07T12:58:36.399Z,78.17
2022-11-07T13:01:06.853Z,78.13
2022-11-07T13:03:46.580Z,78.40
2022-11-07T13:06:34.003Z,78.32
2022-11-07T13:09:47.913Z,78.75
2022-11-07T13:12:18.356Z,78.11
2022-11-07T13:14:47.697Z,77.93
2022-11-07T13:17:21.584Z,78.25
2022-11-07T13:20:03.388Z,78.57
2022-11-07T13:22:35.278Z,78.29
2022-11-07T13:25:16.433Z,78.78
2022-11-07T13:28:00.234Z,78.54
2022-11-07T13:30:30.960Z,78.24
2022-11-07T13:33:01.417Z,78.29
2022-11-07T13:35:38.783Z,79.03
2022-11-07T13:38:18.276Z,78.68
2022-11-07T13:40:49.462Z,78.69
2022-11-07T13:43:56.009Z,78.30
2022-11-07T13:46:30.861Z,78.88
2022-11-07T13:49:03.701Z,78.65
2022-11-07T13:51:46.521Z,78.58
2022-11-07T13:54:35.669Z,78.44
2022-11-07T13:57:21.094Z,79.08
2022-11-07T14:00:02.791Z,78.58
2022-11-07T14:02:34.739Z,79.01
2022-11-07T14:05:16.400Z,78.56
2022-11-07T14:08:15.798Z,79.06
2022-11-07T14:10:49.361Z,79.17
2022-11-07T14:13:39.652Z,78.94
2022-11-07T14:16:23.432Z,79.43
2022-11-07T14:18:59.648Z,79.47
2022-11-07T14:21:33.962Z,79.14
2022-11-07T14:24:02.435Z,79.35
2022-11-07T14:26:39.945Z,78.89
2022-11-07T14:29:09.498Z,79.11
2022-11-07T14:31:39.027Z,79.24
2022-11-07T14:34:19.839Z,78.91
2022-11-07T14:36:51.744Z,79.32
2022-11-07T14:39:23.068Z,78.83
2022-11-07T14:41:52.600Z,79.37
2022-11-07T14:44:36.448Z,79.64
2022-11-07T14:47:23.136Z,79.29
2022-11-07T14:49:54.082Z,79.03
2022-11-07T14:52:30.353Z,79.33
2022-11-07T14:55:09.650Z,79.73
2022-11-07T14:57:39.714Z,79.92
2022-11-07T15:00:14.144Z,79.53
2022-11-07T15:02:44.846Z,79.73
2022-11-07T15:05:38.556Z,79.66
2022-11-07T15:08:08.671Z,80.06
2022-11-07T15:10:42.025Z,79.90
2022-11-07T15:13:28.264Z,79.74
2022-11-07T15:16:04.690Z,80.12
2022-11-07T15:18:38.996Z,80.03
2022-11-07T15:21:08.084Z,80.23
2022-11-07T15:23:36.410Z,80.03
2022-11-07T15:26:07.534Z,80.64
2022-11-07T15:28:53.704Z,80.42
2022-11-07T15:31:31.235Z,80.01
2022-11-07T15:34:01.281Z,80.41
2022-11-07T15:36:29.306Z,80.97
2022-11-07T15:38:58.704Z,80.75
2022-11-07T15:41:26.726Z,80.90
2022-11-07T15:43:54.706Z,80.52
2022-11-07T15:46:55.084Z,81.00
2022-11-07T15:49:23.709Z,80.47
2022-11-07T15:51:51.703Z,80.54
2022-11-07T15:54:20.728Z,80.91
2022-11-07T15:56:54.558Z,81.09
2022-11-07T15:59:33.081Z,81.20
2022-11-07T16:02:01.995Z,80.93
2022-11-07T16:04:30.452Z,81.23
2022-11-07T16:07:01.469Z,81.21
2022-11-07T16:09:34.196Z,81.50
2022-11-07T16:12:02.228Z,81.38
2022-11-07T16:14:43.356Z,81.43
2022-11-07T16:17:18.377Z,81.71
2022-11-07T16:19:47.313Z,82.20
2022-11-07T16:22:16.871Z,81.95
2022-11-07T16:24:44.945Z,81.54
2022-11-07T16:27:20.697Z,82.04
2022-11-07T16:29:48.725Z,81.71
2022-11-07T16:32:18.711Z,81.67
2022-11-07T16:34:47.589Z,82.20
2022-11-07T16:37:15.600Z,82.21
2022-11-07T16:39:43.662Z,82.42
2022-11-07T16:42:16.915Z,82.48
2022-11-07T16:44:45.035Z,82.11
2022-11-07T16:47:22.428Z,82.64
2022-11-07T16:49:54.934Z,82.68
2022-11-07T16:52:25.927Z,82.50
2022-11-07T16:54:53.927Z,82.35
2022-11-07T16:57:24.461Z,82.24
2022-11-07T16:59:53.600Z,82.50
2022-11-07T17:02:24.587Z,82.41
2022-11-07T17:04:55.255Z,82.88
2022-11-07T17:07:24.657Z,82.34
2022-11-07T17:09:52.900Z,82.89
2022-11-07T17:12:24.049Z,83.00
2022-11-07T17:14:53.343Z,82.77
2022-11-07T17:17:22.190Z,82.88
2022-11-07T17:19:50.353Z,82.79
2022-11-07T17:22:20.633Z,83.21
2022-11-07T17:24:48.872Z,82.73
2022-11-07T17:27:23.461Z,82.98
2022-11-07T17:29:52.898Z,83.25
2022-11-07T17:32:21.837Z,82.94
2022-11-07T17:35:10.535Z,82.72
2022-11-07T17:37:38.688Z,82.64
2022-11-07T17:40:07.511Z,83.06
2022-11-07T17:42:38.237Z,82.62
2022-11-07T17:45:09.819Z,82.99
2022-11-07T17:47:37.941Z,83.03
2022-11-07T17:50:06.518Z,82.91
2022-11-07T17:52:34.671Z,83.19
2022-11-07T17:55:02.862Z,82.96
2022-11-07T17:57:31.066Z,82.43
2022-11-07T17:59:59.263Z,82.97
2022-11-07T18:02:28.009Z,82.91
2022-11-07T18:04:56.080Z,82.93
2022-11-07T18:07:25.058Z,83.19
2022-11-07T18:09:53.860Z,83.09
2022-11-07T18:12:21.821Z,83.01
2022-11-07T18:14:50.030Z,83.02
2022-11-07T18:17:17.969Z,82.91
2022-11-07T18:19:45.956Z,82.83
2022-11-07T18:22:14.075Z,82.67
2022-11-07T18:24:42.514Z,82.87
2022-11-07T18:27:10.870Z,82.95
2022-11-07T18:29:40.661Z,82.58
2022-11-07T18:32:08.388Z,82.91
2022-11-07T18:34:36.286Z,82.86
2022-11-07T18:37:06.540Z,82.88
2022-11-07T18:39:34.568Z,83.15
2022-11-07T18:42:02.521Z,83.00
2022-11-07T18:44:30.644Z,83.21
2022-11-07T18:46:58.749Z,82.98
2022-11-07T18:49:26.715Z,82.74
2022-11-07T18:51:54.933Z,83.14
2022-11-07T18:54:23.877Z,82.72
2022-11-07T18:56:51.972Z,82.66
2022-11-07T18:59:20.164Z,82.78
2022-11-07T19:01:48.270Z,82.74
2022-11-07T19:04:16.489Z,82.51
2022-11-07T19:07:06.834Z,82.93
2022-11-07T19:09:35.010Z,82.97
2022-11-07T19:12:02.957Z,82.74
2022-11-07T19:14:31.700Z,83.02
2022-11-07T19:17:01.300Z,83.00
2022-11-07T19:19:29.230Z,83.10
2022-11-07T19:21:57.931Z,82.71
2022-11-07T19:24:25.965Z,82.58
2022-11-07T19:26:53.991Z,82.68
2022-11-07T19:29:23.115Z,82.61
2022-11-07T19:31:51.123Z,83.19
2022-11-07T19:34:20.095Z,82.65
2022-11-07T19:36:51.150Z,83.27
2022-11-07T19:39:19.128Z,83.07
2022-11-07T19:41:47.107Z,82.67
2022-11-07T19:44:15.447Z,83.13
2022-11-07T19:46:43.575Z,82.72
2022-11-07T19:49:11.525Z,82.88
2022-11-07T19:51:41.158Z,83.21
2022-11-07T19:54:10.530Z,83.16
2022-11-07T19:56:39.404Z,82.86
2022-11-07T19:59:07.717Z,83.18
2022-11-07T20:01:36.237Z,83.07
2022-11-07T20:04:06.830Z,83.14
2022-11-07T20:06:39.612Z,83.17
2022-11-07T20:09:10.976Z,83.38
2022-11-07T20:11:38.999Z,83.30
2022-11-07T20:14:07.741Z,82.80
2022-11-07T20:16:37.970Z,82.89
2022-11-07T20:19:06.681Z,83.09
2022-11-07T20:21:35.528Z,83.37
2022-11-07T20:24:06.032Z,83.20
2022-11-07T20:26:34.303Z,82.76
2022-11-07T20:29:06.209Z,82.88
2022-11-07T20:31:43.911Z,83.65
2022-11-07T20:34:18.569Z,82.91
2022-11-07T20:36:48.909Z,83.21
2022-11-07T20:39:17.441Z,83.04
2022-11-07T20:41:46.440Z,83.49
2022-11-07T20:44:16.300Z,83.20
2022-11-07T20:46:46.648Z,83.14
2022-11-07T20:49:16.793Z,83.15
2022-11-07T20:51:45.619Z,83.23
2022-11-07T20:54:16.886Z,83.19
2022-11-07T20:56:45.011Z,83.56
2022-11-07T20:59:13.103Z,83.70
2022-11-07T21:01:41.392Z,83.13
2022-11-07T21:04:14.391Z,83.67
2022-11-07T21:06:42.448Z,83.58
2022-11-07T21:09:12.284Z,83.75
2022-11-07T21:11:45.525Z,83.37
2022-11-07T21:14:13.443Z,83.13
2022-11-07T21:16:41.511Z,83.20
2022-11-07T21:19:12.610Z,83.45
2022-11-07T21:21:40.613Z,83.27
2022-11-07T21:24:09.088Z,83.08
2022-11-07T21:26:44.431Z,83.30
2022-11-07T21:29:12.467Z,83.32
2022-11-07T21:31:41.227Z,83.38
2022-11-07T21:34:11.947Z,83.69
2022-11-07T21:36:39.972Z,83.73
2022-11-07T21:39:10.681Z,83.79
2022-11-07T21:41:39.102Z,83.65
2022-11-07T21:44:07.037Z,83.22
2022-11-07T21:46:37.631Z,83.60
2022-11-07T21:49:06.957Z,83.67
2022-11-07T21:51:36.095Z,83.85
2022-11-07T21:54:06.025Z,83.90
2022-11-07T21:56:37.960Z,83.85
2022-11-07T21:59:11.462Z,83.67
2022-11-07T22:01:40.937Z,83.95
2022-11-07T22:04:13.375Z,83.63
2022-11-07T22:06:44.518Z,83.70
2022-11-07T22:09:17.085Z,83.60
2022-11-07T22:11:48.427Z,83.91
2022-11-07T22:14:20.470Z,84.03
2022-11-07T22:16:49.569Z,83.62
2022-11-07T22:19:19.061Z,83.97
2022-11-07T22:21:47.087Z,83.75
2022-11-07T22:24:15.058Z,83.58
2022-11-07T22:26:45.602Z,84.10
2022-11-07T22:29:13.602Z,84.10
2022-11-07T22:31:41.553Z,84.16
2022-11-07T22:34:12.570Z,84.20
2022-11-07T22:36:40.576Z,84.31
2022-11-07T22:39:08.564Z,84.40
2022-11-07T22:41:36.905Z,83.83
2022-11-07T22:44:05.031Z,84.09
2022-11-07T22:46:33.169Z,84.18
2022-11-07T22:49:01.667Z,83.88
2022-11-07T22:51:32.513Z,84.09
2022-11-07T22:54:03.296Z,84.48
2022-11-07T22:56:34.219Z,83.81
2022-11-07T22:59:02.265Z,83.96
2022-11-07T23:01:33.443Z,84.03
2022-11-07T23:04:02.837Z,83.99
2022-11-07T23:06:30.996Z,84.44
2022-11-07T23:09:00.805Z,83.88
2022-11-07T23:11:49.198Z,84.19
2022-11-07T23:14:22.077Z,84.18
2022-11-07T23:16:53.168Z,84.54
2022-11-07T23:19:24.115Z,84.24
2022-11-07T23:21:53.832Z,84.44
2022-11-07T23:24:22.398Z,84.43
2022-11-07T23:26:50.728Z,84.36
2022-11-07T23:29:24.772Z,84.50
2022-11-07T23:31:53.706Z,84.84
2022-11-07T23:34:23.087Z,84.23
2022-11-07T23:36:52.064Z,84.27
2022-11-07T23:39:22.916Z,84.10
2022-11-07T23:41:50.944Z,84.80
2022-11-07T23:44:19.011Z,84.52
2022-11-07T23:47:05.709Z,84.72
2022-11-07T23:49:51.883Z,84.64
2022-11-07T23:52:21.024Z,84.84
2022-11-07T23:55:07.830Z,84.68
2022-11-07T23:57:59.737Z,84.68
